Time;durP1;ratioP1;P1;durP2;ratioP2;P2;SDS_P1;SDS_P2;PMS_P1;PMS_P2;Temp;Humidity;BMP_temperature;BMP_pressure;BME280_temperature;BME280_humidity;BME280_pressure;Samples;Min_cycle;Max_cycle;Signal;HPM_P1;HPM_P2
2021/05/10 00:00:28;;;;;;;;;;;;;;;4.49;79.31;100340.97;3526310;28;19928;-43
2021/05/10 00:02:09;;;;;;;;;;;;;;;4.45;78.78;100338.19;3526089;28;19935;-46
2021/05/10 00:03:50;;;;;;;;;;;;;;;4.40;78.55;100338.81;3525500;28;19927;-43
2021/05/10 00:05:33;;;;;;;;;;;;;;;4.37;78.43;100333.56;3525683;28;19928;-42
2021/05/10 00:07:14;;;;;;;;;;;;;;;4.37;78.54;100333.56;3527026;28;19980;-42
2021/05/10 00:08:57;;;;;;;;;;;;;;;4.36;78.69;100336.91;3525117;28;20400;-42
2021/05/10 00:10:38;;;;;;;;;;;;;;;4.38;78.96;100340.44;3526897;28;19977;-43
2021/05/10 00:12:20;;;;;;;;;;;;;;;4.40;78.73;100333.69;3525737;28;19935;-43
2021/05/10 00:14:01;;;;;;;;;;;;;;;4.42;79.00;100338.91;3524035;28;19927;-52
2021/05/10 00:15:42;;;;;;;;;;;;;;;4.43;79.55;100337.22;3526068;28;19967;-49
2021/05/10 00:17:24;;;;;;;;;;;;;;;4.43;79.40;100338.09;3525184;28;19951;-43
2021/05/10 00:19:05;;;;;;;;;;;;;;;4.44;79.84;100332.13;3526684;28;19966;-43
2021/05/10 00:20:47;;;;;;;;;;;;;;;4.42;79.69;100338.91;3525017;28;19928;-42
2021/05/10 00:22:29;;;;;;;;;;;;;;;4.41;79.67;100342.28;3525670;28;19978;-42
2021/05/10 00:24:12;;;;;;;;;;;;;;;4.40;79.86;100336.25;3525563;28;19928;-50
2021/05/10 00:25:54;;;;;;;;;;;;;;;4.40;79.55;100335.38;3525093;28;20419;-49
2021/05/10 00:27:35;;;;;;;;;;;;;;;4.38;78.87;100335.28;3525613;28;19963;-42
2021/05/10 00:29:18;;;;;;;;;;;;;;;4.37;79.27;100335.22;3525189;28;20343;-42
2021/05/10 00:31:00;;;;;;;;;;;;;;;4.37;79.62;100335.22;3525992;28;19932;-42
2021/05/10 00:32:41;;;;;;;;;;;;;;;4.36;79.54;100331.78;3524881;28;19927;-42
2021/05/10 00:34:23;;;;;;;;;;;;;;;4.35;79.39;100335.16;3525271;28;19934;-42
2021/05/10 00:36:04;;;;;;;;;;;;;;;4.33;79.74;100331.63;3525238;28;19974;-48
2021/05/10 00:37:45;;;;;;;;;;;;;;;4.32;80.25;100323.84;3525097;28;20225;-42
2021/05/10 00:39:27;;;;;;;;;;;;;;;4.29;80.47;100332.28;3525790;28;20024;-42
2021/05/10 00:41:08;;;;;;;;;;;;;;;4.28;80.37;100338.22;3524775;28;19934;-42
2021/05/10 00:42:49;;;;;;;;;;;;;;;4.26;80.51;100337.25;3526083;28;19934;-50
2021/05/10 00:44:30;;;;;;;;;;;;;;;4.22;80.39;100336.22;3525338;28;20584;-49
2021/05/10 00:46:11;;;;;;;;;;;;;;;4.20;80.28;100339.53;3525909;28;19927;-50
2021/05/10 00:47:52;;;;;;;;;;;;;;;4.18;80.45;100338.59;3525068;28;19931;-49
2021/05/10 00:49:34;;;;;;;;;;;;;;;4.16;80.28;100341.06;3525478;28;19928;-42
2021/05/10 00:51:15;;;;;;;;;;;;;;;4.14;80.44;100345.25;3525926;28;20293;-42
2021/05/10 00:52:56;;;;;;;;;;;;;;;4.13;80.46;100345.16;3524593;28;19942;-42
2021/05/10 00:54:38;;;;;;;;;;;;;;;4.11;80.30;100349.34;3526038;28;19927;-42
2021/05/10 00:56:19;;;;;;;;;;;;;;;4.10;80.35;100350.16;3525075;28;20059;-43
2021/05/10 00:58:02;;;;;;;;;;;;;;;4.07;80.83;100350.88;3526082;28;20419;-42
2021/05/10 00:59:43;;;;;;;;;;;;;;;4.08;81.10;100349.19;3524471;28;19959;-42
2021/05/10 01:01:24;;;;;;;;;;;;;;;4.06;80.98;100350.81;3524994;28;19936;-43
2021/05/10 01:03:06;;;;;;;;;;;;;;;4.03;81.01;100344.69;3524699;28;19939;-42
2021/05/10 01:04:47;;;;;;;;;;;;;;;4.03;81.13;100347.25;3524890;28;19959;-49
2021/05/10 01:06:28;;;;;;;;;;;;;;;4.00;81.17;100341.09;3526234;28;20627;-42
2021/05/10 01:08:09;;;;;;;;;;;;;;;3.99;80.97;100353.03;3525396;28;20387;-42
2021/05/10 01:09:51;;;;;;;;;;;;;;;3.97;81.01;100346.94;3525995;28;19935;-50
2021/05/10 01:11:32;;;;;;;;;;;;;;;3.96;81.20;100354.56;3524106;28;20312;-50
2021/05/10 01:13:14;;;;;;;;;;;;;;;3.95;81.35;100347.69;3523175;28;19927;-49
2021/05/10 01:14:55;;;;;;;;;;;;;;;3.93;81.22;100355.31;3525287;28;19927;-50
2021/05/10 01:16:36;;;;;;;;;;;;;;;3.92;81.15;100356.09;3524322;28;19935;-50
2021/05/10 01:18:18;;;;;;;;;;;;;;;3.91;81.16;100363.72;3526227;28;19934;-49
2021/05/10 01:19:59;;;;;;;;;;;;;;;3.88;81.04;100350.72;3524435;28;20286;-43
2021/05/10 01:21:42;;;;;;;;;;;;;;;3.87;81.36;100354.97;3526223;28;19934;-50
2021/05/10 01:23:24;;;;;;;;;;;;;;;3.86;81.45;100366.06;3524342;28;19928;-49
2021/05/10 01:25:05;;;;;;;;;;;;;;;3.83;80.80;100363.34;3524747;28;19939;-50
2021/05/10 01:26:47;;;;;;;;;;;;;;;3.81;81.24;100364.94;3524776;28;19967;-50
2021/05/10 01:28:28;;;;;;;;;;;;;;;3.79;81.25;100364.88;3524611;28;19935;-42
2021/05/10 01:30:10;;;;;;;;;;;;;;;3.79;81.59;100370.00;3525441;28;19927;-42
2021/05/10 01:31:52;;;;;;;;;;;;;;;3.78;81.62;100369.91;3524444;28;19954;-42
2021/05/10 01:33:33;;;;;;;;;;;;;;;3.76;81.51;100377.53;3525719;28;20018;-42
2021/05/10 01:35:16;;;;;;;;;;;;;;;3.76;81.49;100380.09;3524122;28;19971;-42
2021/05/10 01:36:57;;;;;;;;;;;;;;;3.74;81.67;100374.00;3524568;28;20350;-42
2021/05/10 01:38:39;;;;;;;;;;;;;;;3.73;81.89;100377.34;3524892;28;19970;-43
2021/05/10 01:40:20;;;;;;;;;;;;;;;3.70;81.69;100369.53;3524268;28;20175;-42
2021/05/10 01:42:01;;;;;;;;;;;;;;;3.68;81.65;100378.78;3525010;28;19928;-43
2021/05/10 01:43:43;;;;;;;;;;;;;;;3.67;81.66;100371.91;3523877;28;19932;-42
2021/05/10 01:45:25;;;;;;;;;;;;;;;3.65;81.55;100370.97;3525112;28;19935;-42
2021/05/10 01:47:06;;;;;;;;;;;;;;;3.63;82.00;100365.75;3522666;28;19986;-42
2021/05/10 01:48:47;;;;;;;;;;;;;;;3.64;81.81;100369.19;3524560;28;19931;-42
2021/05/10 01:50:29;;;;;;;;;;;;;;;3.62;82.29;100371.66;3524749;28;20089;-42
2021/05/10 01:52:11;;;;;;;;;;;;;;;3.56;82.02;100371.34;3523710;28;19970;-42
2021/05/10 01:53:53;;;;;;;;;;;;;;;3.50;81.86;100372.72;3525259;28;19928;-42
2021/05/10 01:55:35;;;;;;;;;;;;;;;3.46;82.04;100375.09;3524347;28;19935;-49
2021/05/10 01:57:16;;;;;;;;;;;;;;;3.45;81.66;100373.34;3525060;28;20461;-50
2021/05/10 01:58:58;;;;;;;;;;;;;;;3.47;81.72;100369.19;3523760;28;19928;-49
2021/05/10 02:00:39;;;;;;;;;;;;;;;3.49;82.42;100373.50;3524543;28;19975;-42
2021/05/10 02:02:21;;;;;;;;;;;;;;;3.50;82.44;100380.41;3524727;28;20016;-42
2021/05/10 02:04:02;;;;;;;;;;;;;;;3.49;82.78;100373.50;3523767;28;19959;-42
2021/05/10 02:05:44;;;;;;;;;;;;;;;3.45;82.58;100378.47;3524928;28;19943;-42
2021/05/10 02:07:25;;;;;;;;;;;;;;;3.42;82.25;100375.75;3523637;28;19978;-42
2021/05/10 02:09:07;;;;;;;;;;;;;;;3.39;82.58;100385.84;3525204;28;19928;-42
2021/05/10 02:10:50;;;;;;;;;;;;;;;3.38;82.72;100389.22;3523720;28;19927;-42
2021/05/10 02:12:31;;;;;;;;;;;;;;;3.39;82.72;100397.78;3523998;28;19997;-42
2021/05/10 02:14:12;;;;;;;;;;;;;;;3.37;82.89;100390.00;3522279;28;20068;-43
2021/05/10 02:15:54;;;;;;;;;;;;;;;3.38;83.00;100391.78;3524025;28;19928;-44
2021/05/10 02:17:36;;;;;;;;;;;;;;;3.40;83.16;100386.72;3524684;28;19934;-42
2021/05/10 02:19:17;;;;;;;;;;;;;;;3.42;83.02;100395.41;3524123;28;19979;-50
2021/05/10 02:20:58;;;;;;;;;;;;;;;3.43;82.90;100394.56;3524717;28;20408;-49
2021/05/10 02:22:39;;;;;;;;;;;;;;;3.43;83.08;100403.13;3523507;28;19927;-49
2021/05/10 02:24:21;;;;;;;;;;;;;;;3.44;82.89;100396.34;3524537;28;19935;-42
2021/05/10 02:26:03;;;;;;;;;;;;;;;3.43;83.42;100395.44;3523428;28;20010;-42
2021/05/10 02:27:44;;;;;;;;;;;;;;;3.42;83.69;100401.41;3523612;28;20450;-42
2021/05/10 02:29:26;;;;;;;;;;;;;;;3.41;83.55;100391.91;3525250;28;19932;-50
2021/05/10 02:31:07;;;;;;;;;;;;;;;3.43;83.74;100392.88;3523617;28;20003;-42
2021/05/10 02:32:48;;;;;;;;;;;;;;;3.43;83.65;100395.44;3524637;28;19989;-42
2021/05/10 02:34:30;;;;;;;;;;;;;;;3.44;83.44;100393.78;3523435;28;19971;-42
2021/05/10 02:36:11;;;;;;;;;;;;;;;3.42;83.00;100395.41;3524120;28;19927;-43
2021/05/10 02:37:52;;;;;;;;;;;;;;;3.39;82.82;100390.09;3524138;28;19928;-42
2021/05/10 02:39:34;;;;;;;;;;;;;;;3.39;83.11;100395.22;3523881;28;19934;-42
2021/05/10 02:41:15;;;;;;;;;;;;;;;3.40;82.79;100400.44;3524022;28;19988;-49
2021/05/10 02:42:57;;;;;;;;;;;;;;;3.41;83.09;100404.75;3523476;28;19973;-48
2021/05/10 02:44:40;;;;;;;;;;;;;;;3.43;83.26;100405.72;3524622;28;19939;-49
2021/05/10 02:46:21;;;;;;;;;;;;;;;3.46;83.50;100408.44;3523265;28;19928;-50
2021/05/10 02:48:03;;;;;;;;;;;;;;;3.46;83.02;100410.13;3523688;28;19979;-50
2021/05/10 02:49:44;;;;;;;;;;;;;;;3.49;82.89;100404.28;3524008;28;19974;-50
2021/05/10 02:51:25;;;;;;;;;;;;;;;3.49;82.71;100404.28;3523447;28;19935;-51
2021/05/10 02:53:07;;;;;;;;;;;;;;;3.50;82.76;100406.91;3524362;28;20119;-50
2021/05/10 02:54:49;;;;;;;;;;;;;;;3.52;83.06;100415.56;3523226;28;19928;-50
2021/05/10 02:56:30;;;;;;;;;;;;;;;3.55;83.19;100412.31;3524347;28;19979;-49
2021/05/10 02:58:12;;;;;;;;;;;;;;;3.57;83.30;100409.00;3523972;28;19927;-48
2021/05/10 02:59:53;;;;;;;;;;;;;;;3.62;83.18;100410.16;3526541;28;20004;-50
2021/05/10 03:01:34;;;;;;;;;;;;;;;3.65;83.41;100410.31;3526272;28;20031;-49
2021/05/10 03:03:15;;;;;;;;;;;;;;;3.70;83.72;100412.25;3526151;28;19971;-49
2021/05/10 03:04:56;;;;;;;;;;;;;;;3.73;83.67;100408.16;3526597;28;19934;-49
2021/05/10 03:06:37;;;;;;;;;;;;;;;3.77;84.11;100412.66;3525625;28;19986;-50
2021/05/10 03:08:18;;;;;;;;;;;;;;;3.79;83.94;100411.06;3526958;28;19973;-49
2021/05/10 03:10:00;;;;;;;;;;;;;;;3.84;84.21;100413.84;3525357;28;19928;-52
2021/05/10 03:11:42;;;;;;;;;;;;;;;3.89;83.75;100419.22;3526069;28;19928;-50
2021/05/10 03:13:23;;;;;;;;;;;;;;;3.93;83.64;100416.91;3521090;28;19928;-51
2021/05/10 03:15:06;;;;;;;;;;;;;;;3.98;83.36;100420.59;3516844;28;19928;-51
2021/05/10 03:16:47;;;;;;;;;;;;;;;4.03;82.75;100414.00;3526783;28;19927;-48
2021/05/10 03:18:28;;;;;;;;;;;;;;;4.09;82.84;100417.69;3525554;28;19931;-50
2021/05/10 03:20:10;;;;;;;;;;;;;;;4.14;82.59;100413.66;3526774;28;19928;-49
2021/05/10 03:21:52;;;;;;;;;;;;;;;4.20;82.00;100421.72;3525554;28;19935;-52
2021/05/10 03:23:33;;;;;;;;;;;;;;;4.27;81.65;100417.78;3526559;28;19959;-49
2021/05/10 03:25:15;;;;;;;;;;;;;;;4.32;80.97;100416.28;3525323;28;19974;-42
2021/05/10 03:26:56;;;;;;;;;;;;;;;4.39;80.53;100416.69;3525831;28;19988;-42
2021/05/10 03:28:37;;;;;;;;;;;;;;;4.47;80.42;100418.78;3526632;28;19931;-42
2021/05/10 03:30:19;;;;;;;;;;;;;;;4.55;80.71;100423.50;3525930;28;19932;-42
2021/05/10 03:32:00;;;;;;;;;;;;;;;4.64;81.16;100422.19;3526608;28;19935;-43
2021/05/10 03:33:42;;;;;;;;;;;;;;;4.73;80.98;100426.09;3525470;28;20746;-42
2021/05/10 03:35:23;;;;;;;;;;;;;;;4.82;80.41;100424.78;3526278;28;19974;-42
2021/05/10 03:37:04;;;;;;;;;;;;;;;4.92;80.06;100424.44;3525759;28;19971;-42
2021/05/10 03:38:45;;;;;;;;;;;;;;;5.01;79.37;100423.97;3525474;28;20400;-42
2021/05/10 03:40:27;;;;;;;;;;;;;;;5.09;78.53;100431.22;3526274;28;19928;-42
2021/05/10 03:42:08;;;;;;;;;;;;;;;5.19;77.58;100424.84;3525303;28;19984;-42
2021/05/10 03:43:49;;;;;;;;;;;;;;;5.28;76.82;100426.97;3526429;28;20030;-42
2021/05/10 03:45:31;;;;;;;;;;;;;;;5.38;76.36;100431.75;3525371;28;20393;-42
2021/05/10 03:47:12;;;;;;;;;;;;;;;5.49;76.43;100432.25;3526368;28;19928;-50
2021/05/10 03:48:53;;;;;;;;;;;;;;;5.61;76.09;100435.38;3525702;28;19956;-52
2021/05/10 03:50:34;;;;;;;;;;;;;;;5.72;75.64;100429.03;3525589;28;19967;-49
2021/05/10 03:52:15;;;;;;;;;;;;;;;5.82;74.72;100440.63;3526359;28;19927;-50
2021/05/10 03:53:56;;;;;;;;;;;;;;;5.92;75.30;100437.66;3524855;28;20408;-50
2021/05/10 03:55:39;;;;;;;;;;;;;;;6.04;75.79;100442.44;3526493;28;19939;-50
2021/05/10 03:57:20;;;;;;;;;;;;;;;6.15;75.37;100445.50;3525017;28;19981;-50
2021/05/10 03:59:02;;;;;;;;;;;;;;;6.26;74.97;100446.00;3525917;28;19973;-52
2021/05/10 04:00:43;;;;;;;;;;;;;;;6.38;74.19;100446.50;3525363;28;20419;-51
2021/05/10 04:02:24;;;;;;;;;;;;;;;6.54;74.11;100455.78;3525244;28;19928;-51
2021/05/10 04:04:14;;;;;;;;;;;;;;;6.71;73.36;100448.75;3526199;28;20357;-51
2021/05/10 04:06:12;;;;;;;;;;;;;;;6.89;72.27;100446.03;3524878;28;19959;-49
2021/05/10 04:07:56;;;;;;;;;;;;;;;7.08;71.45;100447.72;3525778;28;19928;-50
2021/05/10 04:09:47;;;;;;;;;;;;;;;7.29;70.46;100442.53;3524466;28;19950;-49
2021/05/10 04:13:47;;;;;;;;;;;;;;;7.82;68.22;100451.44;3524794;28;19985;-50
2021/05/10 04:15:29;;;;;;;;;;;;;;;8.05;67.51;100454.00;3524871;28;20396;-49
2021/05/10 04:17:10;;;;;;;;;;;;;;;8.20;66.10;100454.56;3525528;28;20008;-43
2021/05/10 04:18:51;;;;;;;;;;;;;;;8.34;65.35;100452.47;3525631;28;19934;-43
2021/05/10 04:20:32;;;;;;;;;;;;;;;8.46;63.77;100454.59;3524746;28;20405;-42
2021/05/10 04:22:13;;;;;;;;;;;;;;;8.59;64.11;100454.19;3526027;28;19928;-44
2021/05/10 04:23:54;;;;;;;;;;;;;;;8.71;63.40;100443.38;3524813;28;19970;-44
2021/05/10 04:25:36;;;;;;;;;;;;;;;8.81;62.75;100449.72;3526012;28;20367;-44
2021/05/10 04:27:18;;;;;;;;;;;;;;;8.94;61.82;100448.41;3524656;28;19966;-45
2021/05/10 04:28:59;;;;;;;;;;;;;;;9.05;61.78;100449.66;3525395;28;19927;-46
2021/05/10 04:30:40;;;;;;;;;;;;;;;9.16;62.21;100458.66;3525237;28;20428;-44
2021/05/10 04:32:21;;;;;;;;;;;;;;;9.30;61.56;100455.63;3524831;28;19974;-45
2021/05/10 04:34:03;;;;;;;;;;;;;;;9.46;60.03;100457.88;3526231;28;19976;-46
2021/05/10 04:35:44;;;;;;;;;;;;;;;9.63;60.58;100458.41;3524586;28;20396;-45
2021/05/10 04:37:25;;;;;;;;;;;;;;;9.78;59.23;100454.53;3525853;28;19973;-45
2021/05/10 04:39:06;;;;;;;;;;;;;;;9.92;58.84;100459.25;3524944;28;20368;-46
2021/05/10 04:40:47;;;;;;;;;;;;;;;10.07;58.71;100468.31;3524941;28;20348;-46
2021/05/10 04:42:29;;;;;;;;;;;;;;;10.21;59.16;100463.50;3525334;28;19978;-45
2021/05/10 04:44:11;;;;;;;;;;;;;;;10.33;58.73;100461.25;3524852;28;19927;-46
2021/05/10 04:45:53;;;;;;;;;;;;;;;10.47;58.29;100464.22;3524805;28;19977;-46
2021/05/10 04:47:36;;;;;;;;;;;;;;;10.61;57.85;100462.88;3524342;28;20388;-45
2021/05/10 04:49:18;;;;;;;;;;;;;;;10.75;57.75;100471.03;3525894;28;20407;-45
2021/05/10 04:51:02;;;;;;;;;;;;;;;10.86;56.69;100479.09;3524472;28;20377;-45
2021/05/10 04:52:44;;;;;;;;;;;;;;;10.96;56.37;100473.28;3524711;28;19932;-45
2021/05/10 04:54:25;;;;;;;;;;;;;;;11.05;55.67;100473.50;3525021;28;19928;-45
2021/05/10 04:56:06;;;;;;;;;;;;;;;11.14;55.16;100477.19;3524083;28;19984;-46
2021/05/10 04:57:48;;;;;;;;;;;;;;;11.24;55.12;100473.97;3525858;28;19982;-46
2021/05/10 04:59:29;;;;;;;;;;;;;;;11.34;55.19;100481.19;3524709;28;19988;-46
2021/05/10 05:01:10;;;;;;;;;;;;;;;11.42;53.21;100474.41;3525625;28;19934;-45
2021/05/10 05:02:52;;;;;;;;;;;;;;;11.55;53.61;100477.31;3523673;28;20350;-45
2021/05/10 05:04:33;;;;;;;;;;;;;;;11.65;53.86;100476.66;3525277;28;19928;-46
2021/05/10 05:06:14;;;;;;;;;;;;;;;11.76;53.17;100476.91;3524033;28;19928;-45
2021/05/10 05:07:55;;;;;;;;;;;;;;;11.86;53.22;100470.19;3524805;28;19986;-45
2021/05/10 05:09:37;;;;;;;;;;;;;;;12.00;53.34;100481.75;3524693;28;20403;-50
2021/05/10 05:11:18;;;;;;;;;;;;;;;12.14;53.22;100482.91;3524550;28;19970;-45
2021/05/10 05:12:59;;;;;;;;;;;;;;;12.27;53.29;100481.44;3523452;28;19935;-45
2021/05/10 05:14:41;;;;;;;;;;;;;;;12.39;52.87;100475.59;3522900;28;20342;-50
2021/05/10 05:16:22;;;;;;;;;;;;;;;12.52;52.09;100479.31;3525330;28;19988;-49
2021/05/10 05:18:03;;;;;;;;;;;;;;;12.64;52.29;100481.28;3524988;28;19962;-54
2021/05/10 05:19:44;;;;;;;;;;;;;;;12.73;53.60;100482.28;3524708;28;19938;-46
2021/05/10 05:21:25;;;;;;;;;;;;;;;12.84;52.40;100482.53;3525446;28;19935;-45
2021/05/10 05:23:16;;;;;;;;;;;;;;;12.94;51.71;100481.84;3524366;28;19931;-44
2021/05/10 05:24:58;;;;;;;;;;;;;;;13.07;51.97;100479.44;3525671;28;19998;-44
2021/05/10 05:26:39;;;;;;;;;;;;;;;13.14;51.70;100476.06;3524154;28;19938;-45
2021/05/10 05:28:20;;;;;;;;;;;;;;;13.23;50.71;100478.84;3524589;28;19942;-45
2021/05/10 05:30:03;;;;;;;;;;;;;;;13.30;50.96;100479.81;3525276;28;19975;-52
2021/05/10 05:31:44;;;;;;;;;;;;;;;13.38;51.59;100482.53;3524524;28;20408;-50
2021/05/10 05:33:25;;;;;;;;;;;;;;;13.44;50.58;100480.91;3525224;28;19928;-51
2021/05/10 05:35:07;;;;;;;;;;;;;;;13.49;47.70;100484.47;3524060;28;20536;-51
2021/05/10 05:36:48;;;;;;;;;;;;;;;13.55;47.76;100485.38;3525103;28;19957;-49
2021/05/10 05:38:34;;;;;;;;;;;;;;;13.63;48.83;100483.78;3524134;28;19973;-49
2021/05/10 05:40:15;;;;;;;;;;;;;;;13.76;48.29;100479.59;3524915;28;19928;-49
2021/05/10 05:41:57;;;;;;;;;;;;;;;13.89;48.85;100485.00;3525227;28;19928;-53
2021/05/10 05:43:39;;;;;;;;;;;;;;;13.95;45.95;100486.81;3524178;28;20406;-46
2021/05/10 05:45:20;;;;;;;;;;;;;;;14.06;45.97;100482.63;3511213;28;20454;-46
2021/05/10 05:47:02;;;;;;;;;;;;;;;14.18;46.04;100484.53;3520194;28;19963;-49
2021/05/10 05:49:02;;;;;;;;;;;;;;;14.30;44.69;100485.53;3524907;28;20346;-53
2021/05/10 05:50:43;;;;;;;;;;;;;;;14.39;45.29;100483.91;3524393;28;19938;-53
2021/05/10 05:52:24;;;;;;;;;;;;;;;14.48;45.37;100488.34;3524031;28;19973;-51
2021/05/10 05:54:07;;;;;;;;;;;;;;;14.56;44.00;100480.63;3524730;28;19932;-52
2021/05/10 05:55:48;;;;;;;;;;;;;;;14.57;43.12;100479.75;3523454;28;20345;-52
2021/05/10 05:57:29;;;;;;;;;;;;;;;14.63;43.75;100485.03;3525213;28;19931;-54
2021/05/10 05:59:11;;;;;;;;;;;;;;;14.67;42.57;100483.34;3523651;28;20366;-52
2021/05/10 06:00:53;;;;;;;;;;;;;;;14.73;44.24;100488.59;3524582;28;20023;-48
2021/05/10 06:02:35;;;;;;;;;;;;;;;14.79;43.21;100484.31;3524324;28;19927;-47
2021/05/10 06:04:18;;;;;;;;;;;;;;;14.90;45.23;100478.34;3523955;28;19927;-47
2021/05/10 06:05:59;;;;;;;;;;;;;;;14.99;43.00;100474.09;3523885;28;20438;-53
2021/05/10 06:07:41;;;;;;;;;;;;;;;15.07;42.11;100468.91;3523734;28;19935;-54
2021/05/10 06:09:23;;;;;;;;;;;;;;;15.15;40.51;100474.19;3525025;28;20388;-51
2021/05/10 06:11:06;;;;;;;;;;;;;;;15.24;42.89;100474.25;3523693;28;19981;-50
2021/05/10 06:12:49;;;;;;;;;;;;;;;15.31;43.13;100470.84;3524977;28;19935;-52
2021/05/10 06:14:31;;;;;;;;;;;;;;;15.34;39.89;100476.06;3521140;28;20028;-54
2021/05/10 06:16:12;;;;;;;;;;;;;;;15.45;40.39;100470.06;3523589;28;20418;-49
2021/05/10 06:17:54;;;;;;;;;;;;;;;15.60;41.11;100470.19;3524790;28;19948;-46
2021/05/10 06:19:35;;;;;;;;;;;;;;;15.75;41.88;100480.75;3523274;28;19931;-54
2021/05/10 06:21:16;;;;;;;;;;;;;;;15.84;40.39;100474.69;3524925;28;19935;-46
2021/05/10 06:22:57;;;;;;;;;;;;;;;15.84;39.46;100479.94;3523817;28;19967;-47
2021/05/10 06:24:40;;;;;;;;;;;;;;;15.81;40.78;100482.50;3524131;28;19932;-49
2021/05/10 06:26:21;;;;;;;;;;;;;;;15.77;39.68;100475.50;3523364;28;19927;-48
2021/05/10 06:28:02;;;;;;;;;;;;;;;15.74;39.97;100483.34;3523951;28;20316;-54
2021/05/10 06:29:44;;;;;;;;;;;;;;;15.79;41.25;100481.63;3524446;28;20404;-52
2021/05/10 06:31:25;;;;;;;;;;;;;;;15.86;39.12;100485.13;3524110;28;19981;-49
2021/05/10 06:33:06;;;;;;;;;;;;;;;15.92;39.98;100483.44;3523586;28;19932;-54
2021/05/10 06:34:48;;;;;;;;;;;;;;;16.05;40.58;100479.13;3523904;28;19981;-51
2021/05/10 06:36:29;;;;;;;;;;;;;;;16.15;40.26;100485.28;3523476;28;19928;-53
2021/05/10 06:38:12;;;;;;;;;;;;;;;16.17;39.40;100484.41;3524535;28;20396;-45
2021/05/10 06:39:53;;;;;;;;;;;;;;;16.25;39.97;100487.06;3523456;28;19931;-54
2021/05/10 06:41:34;;;;;;;;;;;;;;;16.36;41.56;100487.09;3524731;28;19971;-55
2021/05/10 06:43:15;;;;;;;;;;;;;;;16.49;40.04;100481.03;3523333;28;19927;-54
2021/05/10 06:44:57;;;;;;;;;;;;;;;16.61;37.42;100482.81;3524338;28;19967;-46
2021/05/10 06:46:38;;;;;;;;;;;;;;;16.76;38.51;100483.72;3523791;28;19927;-46
2021/05/10 06:48:26;;;;;;;;;;;;;;;16.89;39.04;100483.75;3523654;28;19928;-47
2021/05/10 06:50:08;;;;;;;;;;;;;;;17.03;36.97;100488.16;3523691;28;19927;-46
2021/05/10 06:51:49;;;;;;;;;;;;;;;16.98;36.86;100489.88;3523370;28;21003;-46
2021/05/10 06:53:31;;;;;;;;;;;;;;;16.84;36.45;100487.25;3524631;28;20387;-46
2021/05/10 06:55:12;;;;;;;;;;;;;;;16.70;35.12;100488.06;3523355;28;19928;-46
2021/05/10 06:56:54;;;;;;;;;;;;;;;16.66;36.12;100488.06;3523670;28;20307;-47
2021/05/10 06:58:35;;;;;;;;;;;;;;;16.62;36.08;100486.28;3523653;28;19928;-47
2021/05/10 07:00:17;;;;;;;;;;;;;;;16.67;37.45;100488.06;3523729;28;19935;-53
2021/05/10 07:01:59;;;;;;;;;;;;;;;16.80;35.69;100483.75;3524483;28;19975;-54
2021/05/10 07:03:40;;;;;;;;;;;;;;;16.80;33.95;100480.25;3523047;28;20385;-51
2021/05/10 07:05:21;;;;;;;;;;;;;;;16.74;33.87;100481.06;3524369;28;19935;-52
2021/05/10 07:07:02;;;;;;;;;;;;;;;16.69;33.55;100483.69;3523363;28;19928;-47
2021/05/10 07:08:43;;;;;;;;;;;;;;;16.73;34.30;100482.81;3523356;28;19932;-46
2021/05/10 07:10:24;;;;;;;;;;;;;;;16.84;33.92;100484.63;3524002;28;20387;-53
2021/05/10 07:12:06;;;;;;;;;;;;;;;16.91;34.87;100482.00;3523510;28;19971;-51
2021/05/10 07:13:47;;;;;;;;;;;;;;;17.06;34.70;100475.91;3523019;28;20402;-54
2021/05/10 07:15:29;;;;;;;;;;;;;;;17.22;35.07;100468.91;3522803;28;20411;-53
2021/05/10 07:17:10;;;;;;;;;;;;;;;17.45;34.37;100478.50;3524820;28;19935;-51
2021/05/10 07:18:51;;;;;;;;;;;;;;;17.63;35.00;100470.59;3523134;28;19971;-52
2021/05/10 07:20:33;;;;;;;;;;;;;;;17.81;35.02;100485.41;3522950;28;20036;-51
2021/05/10 07:22:14;;;;;;;;;;;;;;;17.81;33.08;100476.66;3523941;28;20018;-53
2021/05/10 07:23:56;;;;;;;;;;;;;;;17.85;35.45;100478.44;3523072;28;19995;-47
2021/05/10 07:25:40;;;;;;;;;;;;;;;17.92;33.67;100477.53;3524404;28;19927;-49
2021/05/10 07:27:22;;;;;;;;;;;;;;;17.99;33.26;100479.25;3522767;28;20052;-50
2021/05/10 07:29:03;;;;;;;;;;;;;;;18.10;33.54;100473.09;3524034;28;19928;-50
2021/05/10 07:30:46;;;;;;;;;;;;;;;18.15;33.03;100472.19;3522757;28;19928;-53
2021/05/10 07:32:27;;;;;;;;;;;;;;;18.18;33.46;100472.19;3523341;28;19985;-47
2021/05/10 07:34:09;;;;;;;;;;;;;;;18.29;33.31;100468.63;3524015;28;19974;-51
2021/05/10 07:35:51;;;;;;;;;;;;;;;18.27;33.39;100476.53;3523038;28;19928;-52
2021/05/10 07:37:32;;;;;;;;;;;;;;;18.32;34.01;100477.38;3524075;28;19927;-49
2021/05/10 07:39:13;;;;;;;;;;;;;;;18.26;31.86;100474.78;3522665;28;19928;-50
2021/05/10 07:40:54;;;;;;;;;;;;;;;18.14;32.84;100467.84;3524379;28;19935;-46
2021/05/10 07:42:35;;;;;;;;;;;;;;;18.15;33.99;100466.06;3524013;28;19928;-48
2021/05/10 07:44:16;;;;;;;;;;;;;;;18.18;32.50;100464.31;3524636;28;19936;-53
2021/05/10 07:45:58;;;;;;;;;;;;;;;18.11;33.73;100465.22;3526028;28;19928;-52
2021/05/10 07:47:43;;;;;;;;;;;;;;;18.07;33.98;100457.38;3525193;28;20735;-52
2021/05/10 07:49:24;;;;;;;;;;;;;;;18.02;34.91;100462.63;3526655;28;19928;-50
2021/05/10 07:51:05;;;;;;;;;;;;;;;18.15;35.16;100466.94;3525451;28;19967;-53
2021/05/10 07:52:47;;;;;;;;;;;;;;;18.31;33.84;100456.38;3526519;28;20198;-54
2021/05/10 07:54:28;;;;;;;;;;;;;;;18.52;33.08;100456.22;3525125;28;19982;-50
2021/05/10 07:56:09;;;;;;;;;;;;;;;18.69;35.33;100453.50;3526108;28;19967;-46
2021/05/10 07:57:53;;;;;;;;;;;;;;;18.84;33.53;100451.63;3525948;28;20304;-46
2021/05/10 07:59:34;;;;;;;;;;;;;;;18.92;32.36;100455.13;3525548;28;20008;-52
2021/05/10 08:01:16;;;;;;;;;;;;;;;18.99;32.44;100448.94;3526279;28;19947;-50
2021/05/10 08:03:05;;;;;;;;;;;;;;;19.06;32.19;100447.13;3524956;28;20365;-49
2021/05/10 08:04:46;;;;;;;;;;;;;;;19.12;31.30;100444.44;3526453;28;19928;-51
2021/05/10 08:06:27;;;;;;;;;;;;;;;19.09;33.65;100450.59;3525517;28;19928;-51
2021/05/10 08:08:09;;;;;;;;;;;;;;;18.94;32.79;100448.97;3525344;28;20404;-48
2021/05/10 08:09:51;;;;;;;;;;;;;;;18.89;33.88;100450.75;3526008;28;19974;-47
2021/05/10 08:11:32;;;;;;;;;;;;;;;18.83;33.63;100449.91;3525044;28;20144;-46
2021/05/10 08:13:14;;;;;;;;;;;;;;;18.79;31.95;100455.19;3525259;28;19976;-46
2021/05/10 08:14:55;;;;;;;;;;;;;;;18.81;33.54;100450.78;3524951;28;19979;-49
2021/05/10 08:16:36;;;;;;;;;;;;;;;18.75;34.10;100450.84;3526289;28;20328;-46
2021/05/10 08:18:18;;;;;;;;;;;;;;;18.86;35.10;100442.00;3525176;28;20382;-47
2021/05/10 08:19:59;;;;;;;;;;;;;;;19.05;34.10;100448.00;3525259;28;19935;-49
2021/05/10 08:21:40;;;;;;;;;;;;;;;19.20;31.66;100442.63;3525912;28;20459;-48
2021/05/10 08:23:22;;;;;;;;;;;;;;;19.28;32.13;100440.78;3525208;28;20289;-46
2021/05/10 08:25:04;;;;;;;;;;;;;;;19.25;31.58;100438.19;3526239;28;19970;-46
2021/05/10 08:26:45;;;;;;;;;;;;;;;19.15;31.84;100444.41;3524517;28;20413;-46
2021/05/10 08:28:27;;;;;;;;;;;;;;;19.18;33.88;100442.63;3525824;28;19939;-53
2021/05/10 08:30:09;;;;;;;;;;;;;;;19.17;32.14;100440.00;3525262;28;19932;-50
2021/05/10 08:31:51;;;;;;;;;;;;;;;18.86;30.16;100436.75;3525106;28;19974;-48
2021/05/10 08:33:32;;;;;;;;;;;;;;;18.68;30.82;100433.34;3525612;28;20057;-50
2021/05/10 08:35:14;;;;;;;;;;;;;;;18.59;31.26;100438.69;3524573;28;19993;-47
2021/05/10 08:36:55;;;;;;;;;;;;;;;18.54;30.50;100429.94;3525977;28;20005;-47
2021/05/10 08:38:36;;;;;;;;;;;;;;;18.52;31.39;100419.44;3524729;28;19927;-51
2021/05/10 08:40:17;;;;;;;;;;;;;;;18.43;29.60;100414.25;3525874;28;19931;-50
2021/05/10 08:41:59;;;;;;;;;;;;;;;18.39;33.07;100413.41;3523724;28;20521;-49
2021/05/10 08:43:42;;;;;;;;;;;;;;;18.54;31.53;100412.44;3525256;28;19935;-47
2021/05/10 08:45:23;;;;;;;;;;;;;;;18.68;31.80;100407.06;3524742;28;19935;-46
2021/05/10 08:47:05;;;;;;;;;;;;;;;18.65;31.00;100412.38;3524775;28;19969;-46
2021/05/10 08:48:47;;;;;;;;;;;;;;;18.40;30.28;100419.53;3525713;28;19928;-47